createdAt,value
2022-12-08T00:02:09.743Z,1.13
2022-12-08T00:04:58.568Z,1.50
2022-12-08T00:07:44.649Z,1.43
2022-12-08T00:10:46.701Z,1.33
2022-12-08T00:13:02.065Z,1.10
2022-12-08T00:15:32.012Z,1.30
2022-12-08T00:18:00.457Z,1.80
2022-12-08T00:20:29.112Z,1.83
2022-12-08T00:22:57.686Z,2.20
2022-12-08T00:25:26.128Z,2.47
2022-12-08T00:27:54.705Z,1.60
2022-12-08T00:30:23.391Z,1.47
2022-12-08T00:32:53.257Z,1.60
2022-12-08T00:35:21.701Z,1.57
2022-12-08T00:37:50.408Z,1.30
2022-12-08T00:40:18.917Z,1.67
2022-12-08T00:42:47.381Z,1.60
2022-12-08T00:45:16.450Z,2.07
2022-12-08T00:47:44.926Z,1.83
2022-12-08T00:50:14.884Z,2.10
2022-12-08T00:52:43.477Z,1.97
2022-12-08T00:55:11.953Z,1.97
2022-12-08T00:57:40.383Z,2.00
2022-12-08T01:00:09.734Z,1.80
2022-12-08T01:02:38.318Z,1.80
2022-12-08T01:05:07.084Z,2.20
2022-12-08T01:07:37.806Z,2.03
2022-12-08T01:10:07.083Z,1.37
2022-12-08T01:12:35.684Z,1.40
2022-12-08T01:15:04.315Z,1.80
2022-12-08T01:17:32.887Z,1.63
2022-12-08T01:20:02.327Z,1.50
2022-12-08T01:22:31.321Z,1.73
2022-12-08T01:25:01.295Z,1.70
2022-12-08T01:27:29.761Z,1.57
2022-12-08T01:29:58.369Z,1.80
2022-12-08T01:32:26.916Z,1.40
2022-12-08T01:34:55.564Z,1.40
2022-12-08T01:37:24.284Z,1.37
2022-12-08T01:39:52.730Z,1.50
2022-12-08T01:42:23.751Z,1.53
2022-12-08T01:44:56.995Z,1.50
2022-12-08T01:47:26.701Z,1.30
2022-12-08T01:49:55.428Z,1.87
2022-12-08T01:52:25.680Z,1.53
2022-12-08T01:54:55.663Z,1.40
2022-12-08T01:57:27.542Z,1.40
2022-12-08T01:59:58.860Z,1.63
2022-12-08T02:02:31.498Z,1.73
2022-12-08T02:05:00.184Z,1.90
2022-12-08T02:07:29.337Z,2.07
2022-12-08T02:09:58.120Z,1.53
2022-12-08T02:12:28.100Z,1.67
2022-12-08T02:14:59.351Z,1.83
2022-12-08T02:17:37.819Z,1.53
2022-12-08T02:20:23.840Z,1.60
2022-12-08T02:22:56.712Z,1.50
2022-12-08T02:25:29.914Z,1.20
2022-12-08T02:28:06.270Z,1.20
2022-12-08T02:30:38.966Z,1.47
2022-12-08T02:33:19.133Z,1.40
2022-12-08T02:35:52.948Z,1.20
2022-12-08T02:38:23.346Z,1.20
2022-12-08T02:40:54.741Z,1.40
2022-12-08T02:43:26.886Z,1.17
2022-12-08T02:45:57.901Z,2.10
2022-12-08T02:48:28.647Z,1.63
2022-12-08T02:50:58.712Z,1.63
2022-12-08T02:53:28.490Z,1.37
2022-12-08T02:56:02.757Z,1.53
2022-12-08T02:58:40.857Z,2.17
2022-12-08T03:01:16.796Z,1.77
2022-12-08T03:03:50.195Z,1.93
2022-12-08T03:06:23.584Z,2.13
2022-12-08T03:08:53.732Z,1.60
2022-12-08T03:11:23.984Z,1.67
2022-12-08T03:13:53.956Z,1.80
2022-12-08T03:16:24.677Z,2.10
2022-12-08T03:18:55.181Z,1.90
2022-12-08T03:21:25.189Z,1.93
2022-12-08T03:23:55.551Z,1.47
2022-12-08T03:26:27.393Z,1.30
2022-12-08T03:28:56.260Z,1.40
2022-12-08T03:31:27.373Z,1.70
2022-12-08T03:33:57.359Z,1.50
2022-12-08T03:36:27.448Z,1.70
2022-12-08T03:38:56.302Z,1.20
2022-12-08T03:41:24.969Z,1.83
2022-12-08T03:43:54.431Z,1.90
2022-12-08T03:48:51.680Z,1.73
2022-12-08T03:51:20.597Z,1.90
2022-12-08T03:53:50.780Z,1.43
2022-12-08T03:56:23.872Z,1.23
2022-12-08T03:58:52.756Z,1.33
2022-12-08T04:01:21.378Z,1.10
2022-12-08T04:03:50.142Z,1.10
2022-12-08T04:06:18.849Z,1.10
2022-12-08T04:08:47.453Z,1.27
2022-12-08T04:11:17.321Z,1.13
2022-12-08T04:13:45.936Z,1.53
2022-12-08T04:16:17.854Z,1.73
2022-12-08T04:18:46.461Z,2.00
2022-12-08T04:21:15.241Z,2.30
2022-12-08T04:23:43.804Z,2.13
2022-12-08T04:26:12.555Z,1.60
2022-12-08T04:28:42.390Z,1.20
2022-12-08T04:31:11.072Z,1.20
2022-12-08T04:33:40.039Z,1.40
2022-12-08T04:36:09.004Z,1.33
2022-12-08T04:38:37.660Z,1.17
2022-12-08T04:41:06.369Z,1.00
2022-12-08T04:43:34.985Z,1.40
2022-12-08T04:46:07.751Z,1.57
2022-12-08T04:48:36.384Z,1.67
2022-12-08T04:51:04.900Z,1.20
2022-12-08T04:53:33.448Z,1.03
2022-12-08T04:56:01.974Z,1.20
2022-12-08T04:58:30.501Z,1.00
2022-12-08T05:00:59.088Z,1.07
2022-12-08T05:03:29.116Z,1.40
2022-12-08T05:05:57.744Z,1.40
2022-12-08T05:08:26.446Z,1.47
2022-12-08T05:10:55.083Z,1.50
2022-12-08T05:13:23.553Z,1.20
2022-12-08T05:15:52.186Z,0.83
2022-12-08T05:18:20.872Z,0.97
2022-12-08T05:20:50.696Z,0.90
2022-12-08T05:23:19.210Z,0.70
2022-12-08T05:25:47.903Z,0.90
2022-12-08T05:28:40.228Z,1.10
2022-12-08T05:31:05.148Z,0.90
2022-12-08T05:33:33.648Z,0.83
2022-12-08T05:36:03.691Z,0.80
2022-12-08T05:38:32.523Z,0.87
2022-12-08T05:41:00.998Z,1.00
2022-12-08T05:43:29.568Z,0.60
2022-12-08T05:45:58.396Z,0.80
2022-12-08T05:48:26.973Z,0.80
2022-12-08T05:50:55.485Z,0.90
2022-12-08T05:53:25.560Z,1.07
2022-12-08T05:55:54.111Z,1.50
2022-12-08T05:58:23.725Z,1.17
2022-12-08T06:00:52.680Z,1.40
2022-12-08T06:03:21.239Z,1.00
2022-12-08T06:05:49.845Z,1.30
2022-12-08T06:08:18.513Z,1.00
2022-12-08T06:10:48.506Z,1.17
2022-12-08T06:13:16.993Z,0.80
2022-12-08T06:15:45.793Z,0.80
2022-12-08T06:18:14.244Z,0.83
2022-12-08T06:20:42.676Z,0.80
2022-12-08T06:23:11.457Z,0.90
2022-12-08T06:25:39.897Z,0.70
2022-12-08T06:28:09.723Z,1.00
2022-12-08T06:30:39.537Z,0.90
2022-12-08T06:33:08.397Z,0.87
2022-12-08T06:35:36.837Z,0.63
2022-12-08T06:38:05.416Z,0.73
2022-12-08T06:40:34.033Z,1.00
2022-12-08T06:43:02.489Z,0.60
2022-12-08T06:45:32.506Z,0.73
2022-12-08T06:48:02.732Z,0.50
2022-12-08T06:50:32.634Z,0.77
2022-12-08T06:53:05.398Z,0.77
2022-12-08T06:55:57.702Z,0.63
2022-12-08T06:58:23.145Z,0.70
2022-12-08T07:00:53.713Z,0.67
2022-12-08T07:03:22.320Z,0.60
2022-12-08T07:05:51.481Z,0.60
2022-12-08T07:08:20.014Z,0.50
2022-12-08T07:10:48.513Z,0.50
2022-12-08T07:13:17.205Z,0.50
2022-12-08T07:15:45.681Z,0.40
2022-12-08T07:18:15.518Z,0.40
2022-12-08T07:20:44.204Z,0.50
2022-12-08T07:23:12.781Z,0.80
2022-12-08T07:25:41.250Z,0.57
2022-12-08T07:28:10.801Z,0.63
2022-12-08T07:30:39.607Z,0.40
2022-12-08T07:33:08.226Z,0.70
2022-12-08T07:35:38.128Z,0.50
2022-12-08T07:38:06.703Z,0.60
2022-12-08T07:40:35.311Z,0.60
2022-12-08T07:43:03.890Z,0.60
2022-12-08T07:45:32.341Z,0.50
2022-12-08T07:48:01.114Z,0.40
2022-12-08T07:50:29.655Z,0.53
2022-12-08T07:52:59.474Z,0.60
2022-12-08T07:55:28.774Z,0.60
2022-12-08T07:57:57.622Z,0.70
2022-12-08T08:00:26.381Z,0.60
2022-12-08T08:02:54.961Z,0.67
2022-12-08T08:05:24.513Z,0.60
2022-12-08T08:07:53.168Z,0.50
2022-12-08T08:10:23.133Z,0.57
2022-12-08T08:12:51.827Z,0.30
2022-12-08T08:15:21.362Z,0.50
2022-12-08T08:17:51.827Z,0.53
2022-12-08T08:20:20.844Z,0.67
2022-12-08T08:22:50.055Z,0.57
2022-12-08T08:25:19.417Z,0.67
2022-12-08T08:27:49.431Z,0.40
2022-12-08T08:30:20.626Z,0.70
2022-12-08T08:32:49.872Z,0.60
2022-12-08T08:35:18.584Z,0.53
2022-12-08T08:37:49.083Z,0.70
2022-12-08T08:40:18.119Z,0.40
2022-12-08T08:42:46.702Z,0.60
2022-12-08T08:45:16.652Z,0.63
2022-12-08T08:47:45.300Z,0.43
2022-12-08T08:50:14.001Z,0.40
2022-12-08T08:52:42.613Z,0.60
2022-12-08T08:55:11.341Z,0.50
2022-12-08T08:57:39.999Z,0.57
2022-12-08T09:00:10.235Z,0.43
2022-12-08T09:02:40.488Z,0.57
2022-12-08T09:05:09.412Z,0.60
2022-12-08T09:07:38.124Z,0.40
2022-12-08T09:10:07.548Z,0.60
2022-12-08T09:12:36.331Z,0.57
2022-12-08T09:15:04.946Z,0.60
2022-12-08T09:17:33.710Z,0.80
2022-12-08T09:20:03.949Z,0.87
2022-12-08T09:22:32.755Z,0.70
2022-12-08T09:25:01.433Z,0.70
2022-12-08T09:27:29.872Z,0.77
2022-12-08T09:29:58.323Z,1.37
2022-12-08T09:32:27.031Z,1.20
2022-12-08T09:34:55.481Z,0.90
2022-12-08T09:37:25.326Z,0.90
2022-12-08T09:39:53.983Z,0.87
2022-12-08T09:42:28.929Z,0.87
2022-12-08T09:45:00.132Z,1.53
2022-12-08T09:47:35.486Z,1.80
2022-12-08T09:50:07.785Z,1.97
2022-12-08T09:52:41.461Z,2.67
2022-12-08T09:55:15.893Z,2.50
2022-12-08T09:57:44.856Z,1.40
2022-12-08T10:00:14.694Z,1.80
2022-12-08T10:02:43.387Z,1.83
2022-12-08T10:05:15.001Z,1.93
2022-12-08T10:07:47.373Z,2.27
2022-12-08T10:10:21.726Z,2.40
2022-12-08T10:12:54.037Z,2.13
2022-12-08T10:15:31.937Z,2.30
2022-12-08T10:18:02.725Z,2.10
2022-12-08T10:20:37.601Z,2.10
2022-12-08T10:23:10.488Z,2.50
2022-12-08T10:25:41.043Z,2.23
2022-12-08T10:28:10.416Z,2.30
2022-12-08T10:30:38.981Z,1.57
2022-12-08T10:33:07.541Z,1.00
2022-12-08T10:35:45.264Z,1.30
2022-12-08T10:38:20.785Z,2.67
2022-12-08T10:40:50.349Z,1.70
2022-12-08T10:43:20.240Z,1.37
2022-12-08T10:45:48.662Z,1.20
2022-12-08T10:48:18.808Z,1.03
2022-12-08T10:50:49.020Z,1.00
2022-12-08T10:53:21.744Z,1.10
2022-12-08T10:55:52.601Z,0.90
2022-12-08T10:58:31.414Z,0.60
2022-12-08T11:01:03.817Z,0.60
2022-12-08T11:03:33.239Z,0.67
2022-12-08T11:06:08.956Z,0.80
2022-12-08T11:08:46.960Z,0.70
2022-12-08T11:11:17.036Z,0.87
2022-12-08T11:13:45.673Z,3.50
2022-12-08T11:16:15.715Z,7.33
2022-12-08T11:18:44.964Z,3.03
2022-12-08T11:21:16.075Z,2.03
2022-12-08T11:23:48.108Z,2.17
2022-12-08T11:26:21.003Z,1.30
2022-12-08T11:28:49.632Z,0.90
2022-12-08T11:31:23.229Z,0.77
2022-12-08T11:33:53.224Z,0.70
2022-12-08T11:36:22.745Z,0.93
2022-12-08T11:38:52.652Z,0.70
2022-12-08T11:41:24.323Z,0.57
2022-12-08T11:43:54.792Z,0.90
2022-12-08T11:46:24.924Z,0.67
2022-12-08T11:48:55.100Z,0.60
2022-12-08T11:51:27.578Z,0.90
2022-12-08T11:54:06.400Z,1.43
2022-12-08T11:56:38.334Z,0.83
2022-12-08T11:59:10.723Z,0.70
2022-12-08T12:01:42.482Z,1.00
2022-12-08T12:04:15.116Z,0.90
2022-12-08T12:07:07.206Z,1.10
2022-12-08T12:09:41.282Z,1.20
2022-12-08T12:12:16.009Z,0.90
2022-12-08T12:14:59.695Z,1.00
2022-12-08T12:17:34.410Z,1.00
2022-12-08T12:20:06.460Z,1.00
2022-12-08T12:22:36.463Z,1.10
2022-12-08T12:25:05.461Z,1.20
2022-12-08T12:27:39.668Z,1.50
2022-12-08T12:30:10.312Z,1.53
2022-12-08T12:32:43.567Z,1.37
2022-12-08T12:35:16.392Z,1.40
2022-12-08T12:37:45.244Z,1.57
2022-12-08T12:40:18.919Z,1.60
2022-12-08T12:42:50.982Z,1.37
2022-12-08T12:45:27.779Z,1.50
2022-12-08T12:48:11.197Z,1.80
2022-12-08T12:50:43.394Z,1.50
2022-12-08T12:53:26.726Z,1.90
2022-12-08T12:55:56.160Z,1.73
2022-12-08T12:58:36.253Z,2.10
2022-12-08T13:01:23.357Z,1.90
2022-12-08T13:03:53.732Z,1.80
2022-12-08T13:06:24.776Z,2.20
2022-12-08T13:08:54.583Z,2.27
2022-12-08T13:11:23.416Z,2.20
2022-12-08T13:13:59.332Z,2.03
2022-12-08T13:16:28.723Z,2.43
2022-12-08T13:18:59.489Z,2.67
2022-12-08T13:21:33.906Z,2.60
2022-12-08T13:24:17.643Z,2.70
2022-12-08T13:26:46.614Z,2.97
2022-12-08T13:29:23.457Z,3.20
2022-12-08T13:31:53.530Z,3.33
2022-12-08T13:34:23.672Z,3.17
2022-12-08T13:36:56.991Z,3.00
2022-12-08T13:39:27.423Z,3.20
2022-12-08T13:42:00.429Z,3.57
2022-12-08T13:47:34.015Z,3.73
2022-12-08T13:58:36.491Z,3.07
2022-12-08T14:01:09.423Z,2.90
2022-12-08T14:04:04.646Z,2.93
2022-12-08T14:06:38.086Z,2.97
2022-12-08T14:09:10.952Z,2.80
2022-12-08T14:11:40.602Z,2.73
2022-12-08T14:14:10.910Z,2.50
2022-12-08T14:16:41.439Z,2.47
2022-12-08T14:19:17.720Z,2.67
2022-12-08T14:21:49.719Z,2.50
2022-12-08T14:24:18.224Z,2.30
2022-12-08T14:26:48.482Z,2.27
2022-12-08T14:29:35.575Z,2.13
2022-12-08T14:32:05.845Z,1.90
2022-12-08T14:34:40.442Z,2.40
2022-12-08T14:37:14.016Z,1.90
2022-12-08T14:39:42.696Z,1.70
2022-12-08T14:42:20.520Z,2.27
2022-12-08T14:44:49.048Z,2.00
2022-12-08T14:47:22.226Z,1.77
2022-12-08T14:49:50.894Z,1.60
2022-12-08T14:52:19.301Z,2.03
2022-12-08T14:54:48.004Z,1.83
2022-12-08T14:57:16.875Z,1.43
2022-12-08T14:59:45.973Z,1.67
2022-12-08T15:02:23.267Z,1.63
2022-12-08T15:04:58.006Z,1.70
2022-12-08T15:07:27.723Z,2.03
2022-12-08T15:10:10.954Z,1.67
2022-12-08T15:12:39.441Z,1.73
2022-12-08T15:15:17.096Z,2.00
2022-12-08T15:17:47.329Z,1.63
2022-12-08T15:20:34.837Z,1.50
2022-12-08T15:23:04.270Z,1.67
2022-12-08T15:25:33.181Z,1.60
2022-12-08T15:28:03.835Z,1.67
2022-12-08T15:30:33.542Z,1.50
2022-12-08T15:33:02.035Z,1.50
2022-12-08T15:35:34.740Z,1.50
2022-12-08T15:38:07.508Z,1.10
2022-12-08T15:40:36.052Z,1.40
2022-12-08T15:43:04.424Z,1.33
2022-12-08T15:45:33.621Z,1.10
2022-12-08T15:48:02.638Z,1.10
2022-12-08T15:50:32.495Z,1.40
2022-12-08T15:53:00.999Z,1.33
2022-12-08T15:55:31.127Z,1.23
2022-12-08T15:58:51.921Z,1.10
2022-12-08T16:00:53.544Z,1.03
2022-12-08T16:09:12.208Z,1.00
2022-12-08T16:12:08.375Z,1.10
2022-12-08T16:17:27.440Z,1.10
2022-12-08T16:19:56.112Z,0.93
2022-12-08T16:22:52.867Z,0.97
2022-12-08T16:25:21.143Z,1.30
2022-12-08T16:28:01.317Z,1.03
2022-12-08T16:30:31.988Z,1.00
2022-12-08T16:33:00.577Z,1.10
2022-12-08T16:35:29.062Z,1.23
2022-12-08T16:37:59.302Z,1.00
2022-12-08T16:40:27.718Z,1.00
2022-12-08T16:42:55.160Z,1.10
2022-12-08T16:45:24.925Z,0.90
2022-12-08T16:47:54.139Z,0.97
2022-12-08T16:50:23.675Z,1.10
2022-12-08T16:52:52.729Z,1.10
2022-12-08T16:55:22.785Z,1.27
2022-12-08T16:57:51.237Z,1.00
2022-12-08T17:00:21.007Z,1.10
2022-12-08T17:02:49.874Z,0.80
2022-12-08T17:05:19.643Z,1.07
2022-12-08T17:07:49.641Z,0.70
2022-12-08T17:10:20.301Z,1.07
2022-12-08T17:12:50.418Z,1.03
2022-12-08T17:15:20.615Z,1.10
2022-12-08T17:17:49.183Z,1.00
2022-12-08T17:20:18.437Z,0.93
2022-12-08T17:22:47.055Z,0.90
2022-12-08T17:25:15.627Z,0.90
2022-12-08T17:27:44.181Z,0.90
2022-12-08T17:30:15.792Z,0.80
2022-12-08T17:32:44.460Z,0.87
2022-12-08T17:35:13.389Z,1.00
2022-12-08T17:37:41.794Z,0.90
2022-12-08T17:40:10.901Z,1.17
2022-12-08T17:42:39.463Z,0.80
2022-12-08T17:45:08.798Z,0.73
2022-12-08T17:47:38.856Z,0.70
2022-12-08T17:50:08.509Z,0.80
2022-12-08T17:52:37.367Z,0.80
2022-12-08T17:55:06.313Z,1.03
2022-12-08T17:57:34.781Z,0.87
2022-12-08T18:00:03.641Z,0.83
2022-12-08T18:02:33.678Z,0.90
2022-12-08T18:05:03.656Z,0.60
2022-12-08T18:07:32.217Z,0.67
2022-12-08T18:10:00.996Z,0.87
2022-12-08T18:12:29.443Z,0.70
2022-12-08T18:14:57.975Z,0.90
2022-12-08T18:17:26.724Z,0.70
2022-12-08T18:19:55.388Z,0.77
2022-12-08T18:22:25.268Z,0.70
2022-12-08T18:24:53.795Z,0.90
2022-12-08T18:27:22.368Z,0.87
2022-12-08T18:29:50.820Z,0.80
2022-12-08T18:32:22.822Z,0.70
2022-12-08T18:34:51.447Z,0.70
2022-12-08T18:37:20.008Z,0.70
2022-12-08T18:39:50.948Z,0.70
2022-12-08T18:42:25.205Z,0.43
2022-12-08T18:44:56.316Z,0.50
2022-12-08T18:47:24.760Z,0.73
2022-12-08T18:49:53.215Z,0.57
2022-12-08T18:52:28.214Z,0.50
2022-12-08T18:55:08.596Z,0.80
2022-12-08T18:57:38.676Z,0.70
2022-12-08T19:00:08.119Z,1.03
2022-12-08T19:02:37.338Z,0.80
2022-12-08T19:05:06.360Z,0.80
2022-12-08T19:07:35.008Z,0.73
2022-12-08T19:10:05.278Z,0.67
2022-12-08T19:12:34.119Z,0.60
2022-12-08T19:15:02.740Z,0.90
2022-12-08T19:17:31.358Z,0.57
2022-12-08T19:19:59.871Z,0.87
2022-12-08T19:22:28.456Z,1.10
2022-12-08T19:24:57.044Z,0.80
2022-12-08T19:27:26.969Z,1.00
2022-12-08T19:29:55.531Z,0.73
2022-12-08T19:32:24.664Z,0.70
2022-12-08T19:34:53.247Z,0.70
2022-12-08T19:37:21.717Z,0.60
2022-12-08T19:40:08.445Z,0.70
2022-12-08T19:42:55.839Z,0.60
2022-12-08T19:45:24.585Z,0.60
2022-12-08T19:47:53.091Z,0.83
2022-12-08T19:50:40.610Z,1.17
2022-12-08T19:53:10.361Z,0.70
2022-12-08T19:55:39.365Z,0.63
2022-12-08T19:58:10.495Z,0.93
2022-12-08T20:00:40.524Z,0.70
2022-12-08T20:03:09.357Z,0.70
2022-12-08T20:05:38.807Z,0.80
2022-12-08T20:08:07.686Z,0.60
2022-12-08T20:10:37.785Z,0.70
2022-12-08T20:13:24.389Z,0.80
2022-12-08T20:15:54.486Z,0.90
2022-12-08T20:18:23.260Z,0.70
2022-12-08T20:20:51.802Z,0.70
2022-12-08T20:23:20.425Z,0.60
2022-12-08T20:25:49.040Z,0.80
2022-12-08T20:28:19.053Z,0.70
2022-12-08T20:30:49.242Z,0.70
2022-12-08T20:33:20.453Z,0.60
2022-12-08T20:35:49.128Z,0.70
2022-12-08T20:38:17.784Z,0.60
2022-12-08T20:40:47.511Z,0.60
2022-12-08T20:43:15.978Z,0.60
2022-12-08T20:45:44.484Z,0.40
2022-12-08T20:48:13.515Z,0.70
2022-12-08T20:50:43.468Z,0.60
2022-12-08T20:53:11.917Z,0.60
2022-12-08T20:55:42.996Z,0.70
2022-12-08T20:58:12.263Z,0.50
2022-12-08T21:00:40.785Z,0.70
2022-12-08T21:03:09.540Z,0.70
2022-12-08T21:05:39.076Z,0.73
2022-12-08T21:08:09.341Z,0.87
2022-12-08T21:10:43.637Z,0.63
2022-12-08T21:13:12.756Z,0.67
2022-12-08T21:15:41.475Z,0.80
2022-12-08T21:18:10.201Z,0.70
2022-12-08T21:20:38.841Z,0.70
2022-12-08T21:23:07.532Z,0.40
2022-12-08T21:25:41.076Z,0.80
2022-12-08T21:28:09.939Z,0.60
2022-12-08T21:30:39.792Z,0.47
2022-12-08T21:33:08.400Z,0.67
2022-12-08T21:35:37.257Z,0.40
2022-12-08T21:38:06.538Z,0.63
2022-12-08T21:40:35.736Z,0.40
2022-12-08T21:43:06.100Z,0.30
2022-12-08T21:45:35.580Z,0.60
2022-12-08T21:48:10.719Z,0.50
2022-12-08T21:50:40.425Z,0.57
2022-12-08T21:53:09.087Z,0.50
2022-12-08T21:55:37.587Z,0.50
2022-12-08T21:58:07.894Z,0.50
2022-12-08T22:00:36.433Z,0.60
2022-12-08T22:03:05.422Z,0.50
2022-12-08T22:05:34.510Z,0.57
2022-12-08T22:08:03.353Z,0.70
2022-12-08T22:10:34.382Z,0.60
2022-12-08T22:13:03.275Z,0.50
2022-12-08T22:15:33.200Z,0.30
2022-12-08T22:18:01.824Z,0.50
2022-12-08T22:20:30.892Z,0.43
2022-12-08T22:22:59.720Z,0.60
2022-12-08T22:25:28.178Z,0.67
2022-12-08T22:27:57.046Z,0.53
2022-12-08T22:30:25.666Z,0.60
2022-12-08T22:32:55.572Z,0.40
2022-12-08T22:35:24.636Z,0.60
2022-12-08T22:37:53.115Z,0.50
2022-12-08T22:40:21.809Z,0.60
2022-12-08T22:42:50.607Z,0.60
2022-12-08T22:45:19.196Z,0.37
2022-12-08T22:47:47.796Z,0.50
2022-12-08T22:50:17.988Z,0.60
2022-12-08T22:52:46.634Z,0.37
2022-12-08T22:55:15.436Z,0.57
2022-12-08T22:57:44.104Z,0.60
2022-12-08T23:00:13.427Z,0.50
2022-12-08T23:02:42.150Z,0.40
2022-12-08T23:05:11.708Z,0.40
2022-12-08T23:07:41.869Z,0.50
2022-12-08T23:10:11.615Z,0.67
2022-12-08T23:12:40.472Z,0.50
2022-12-08T23:15:09.468Z,0.50
2022-12-08T23:17:38.455Z,0.37
2022-12-08T23:20:08.072Z,0.50
2022-12-08T23:22:36.948Z,0.50
2022-12-08T23:25:07.334Z,0.67
2022-12-08T23:27:36.339Z,0.50
2022-12-08T23:30:05.482Z,0.60
2022-12-08T23:32:34.711Z,0.40
2022-12-08T23:35:03.529Z,0.27
2022-12-08T23:37:32.032Z,0.40
2022-12-08T23:40:00.601Z,0.30
2022-12-08T23:42:31.470Z,0.50
2022-12-08T23:44:59.969Z,0.50
2022-12-08T23:47:28.570Z,0.50
2022-12-08T23:49:57.750Z,0.43
2022-12-08T23:52:26.223Z,0.53
2022-12-08T23:54:55.113Z,0.30
2022-12-08T23:57:23.995Z,0.40
2022-12-08T23:59:53.972Z,0.40
